WetterOnline ( https://www.wetteronline.de )

Wetter aktuell Waldmünchen

Aktuelles Wetter: Waldmünchen (499m)

6-stündlich | Neueste Meldungen
Ortszeit Temperatur Wetter
Fr, 24.05. 20:00 16.9° C wolkig
Fr, 24.05. 14:00 18.9° C bewölkt
Fr, 24.05. 8:00 9.5° C wolkig
Fr, 24.05. 2:00 6.9° C wolkig
Do, 23.05. 20:00 16.0° C wolkig
Do, 23.05. 14:00 15.7° C bewölkt
Do, 23.05. 8:00 7.9° C bedeckt
Do, 23.05. 2:00 8.3° C wolkig
Ortszeit Temperatur Wetter
Sa, 25.05. 0:30 9.7° C wolkig
Sa, 25.05. 0:10 9.6° C wolkig
Sa, 25.05. 0:00 10.0° C bedeckt
Fr, 24.05. 23:50 10.0° C bedeckt
Fr, 24.05. 23:40 10.2° C bedeckt
Fr, 24.05. 23:30 10.3° C bedeckt
Fr, 24.05. 23:00 10.7° C bedeckt
Fr, 24.05. 22:30 11.2° C bedeckt
Fr, 24.05. 22:00 12.2° C bedeckt
Fr, 24.05. 21:30 13.1° C bedeckt
Ortszeit Relative Feuchte Sichtweite
Fr, 24.05. 20:00 58% 50 km
Fr, 24.05. 14:00 43% 35 km
Fr, 24.05. 8:00 83% 23 km
Fr, 24.05. 2:00 98% 11 km
Do, 23.05. 20:00 59% 50 km
Do, 23.05. 14:00 49% 29 km
Do, 23.05. 8:00 95% 5.0 km
Do, 23.05. 2:00 96% 10 km
Ortszeit Relative Feuchte Sichtweite
Sa, 25.05. 0:30 93% 18 km
Sa, 25.05. 0:10 93% -
Sa, 25.05. 0:00 91% 17 km
Fr, 24.05. 23:50 91% -
Fr, 24.05. 23:40 91% -
Fr, 24.05. 23:30 90% 22 km
Fr, 24.05. 23:00 89% 22 km
Fr, 24.05. 22:30 87% 24 km
Fr, 24.05. 22:00 84% 28 km
Fr, 24.05. 21:30 80% 30 km
Ortszeit Niederschlagsmenge Niederschlagsart
Fr, 24.05. 20:00 0.0 l/m2 in 12 Std. -
Fr, 24.05. 14:00 0.0 l/m2 in 6 Std. -
Fr, 24.05. 8:00 0.0 l/m2 in 12 Std. -
Fr, 24.05. 2:00 0.0 l/m2 in 6 Std. -
Do, 23.05. 20:00 0.0 l/m2 in 12 Std. -
Do, 23.05. 14:00 0.0 l/m2 in 6 Std. -
Do, 23.05. 8:00 0.0 l/m2 in 12 Std. -
Do, 23.05. 2:00 0.0 l/m2 in 6 Std. -
Ortszeit Niederschlagsmenge Niederschlagsart
Sa, 25.05. 0:30 0.0 l/m2 in 1 Std. -
Sa, 25.05. 0:10 keine Meldung -
Sa, 25.05. 0:00 0.0 l/m2 in 1 Std. -
Fr, 24.05. 23:50 keine Meldung -
Fr, 24.05. 23:40 keine Meldung -
Fr, 24.05. 23:30 0.0 l/m2 in 1 Std. -
Fr, 24.05. 23:00 0.0 l/m2 in 1 Std. -
Fr, 24.05. 22:30 0.0 l/m2 in 1 Std. -
Fr, 24.05. 22:00 0.0 l/m2 in 1 Std. -
Fr, 24.05. 21:30 0.0 l/m2 in 1 Std. -
Ortszeit Stärke Spitze Richtung
km/h Bft. km/h Grad Sektor
Fr, 24.05. 20:00 4 1 22 40° NO
Fr, 24.05. 14:00 9 2 20 240° SW
Fr, 24.05. 8:00 2 1 11 230° SW
Fr, 24.05. 2:00 4 1 11 140° SO
Do, 23.05. 20:00 6 1 26 300° NW
Do, 23.05. 14:00 7 2 29 260° W
Do, 23.05. 8:00 0 0 7 - -
Do, 23.05. 2:00 4 1 25 30° NO
Ortszeit Stärke Spitze Richtung
km/h Bft. km/h Grad Sektor
Sa, 25.05. 0:30 4 1 7 50° NO
Sa, 25.05. 0:10 4 1 - 60° NO
Sa, 25.05. 0:00 7 2 7 90° O
Fr, 24.05. 23:50 7 2 - 90° O
Fr, 24.05. 23:40 4 1 - 90° O
Fr, 24.05. 23:30 2 1 6 40° NO
Fr, 24.05. 23:00 4 1 11 80° O
Fr, 24.05. 22:30 6 1 11 80° O
Fr, 24.05. 22:00 7 2 11 90° O
Fr, 24.05. 21:30 7 2 11 80° O
Ortszeit Untergrenze Bedeckung Gattung
total tief tief mittel hoch
Fr, 24.05. 20:00 2100 m 5/8 5/8 - - -
Fr, 24.05. 14:00 1800 m 7/8 7/8 - - -
Fr, 24.05. 8:00 6300 m 8/8 8/8 - - -
Fr, 24.05. 2:00 9000 m 8/8 0/8 - - -
Do, 23.05. 20:00 1800 m 6/8 2/8 - - -
Do, 23.05. 14:00 1470 m 7/8 7/8 - - -
Do, 23.05. 8:00 3900 m 8/8 8/8 - - -
Do, 23.05. 2:00 1140 m 8/8 3/8 - - -
Ortszeit Bedeckungsgrad in Achtel und Wolkenuntergrenze
Sa, 25.05. 0:30 2(1800m) 8(3900m)
Sa, 25.05. 0:10 1(2100m) 8(3900m) 8(6300m)
Sa, 25.05. 0:00 8(3900m) 8(6300m) 8(7200m)
Fr, 24.05. 23:50 8(3900m) 8(6300m) 8(7200m)
Fr, 24.05. 23:40 8(3900m) 8(6600m) 8(7200m)
Fr, 24.05. 23:30 8(3900m) 8(5100m) 8(7200m)
Fr, 24.05. 23:00 8(4200m) 8(5100m) 8(5700m)
Fr, 24.05. 22:30 7(4200m) 8(4800m) 8(7200m)
Fr, 24.05. 22:00 7(4200m) 8(4800m) 8(9000m)
Fr, 24.05. 21:30 8(4800m) 8(6300m) 8(7200m)
Ortszeit Luftdruck NN (hPa) Tendenz (hPa in 3 Std.)
Fr, 24.05. 20:00 1013 - 0,8
Fr, 24.05. 14:00 1014 - 0,9
Fr, 24.05. 8:00 1017 - 0,1
Fr, 24.05. 2:00 1019 - 0,3
Do, 23.05. 20:00 1017 - 0,4
Do, 23.05. 14:00 1018 - 1,1
Do, 23.05. 8:00 1021 + 0,7
Do, 23.05. 2:00 1020 + 0,4
Ortszeit Luftdruck NN (hPa) Tendenz (hPa in 3 Std.)
Sa, 25.05. 0:30 1015 + 0,7
Sa, 25.05. 0:10 1015 keine Meldung
Sa, 25.05. 0:00 1015 + 0,8
Fr, 24.05. 23:50 1015 keine Meldung
Fr, 24.05. 23:40 1015 keine Meldung
Fr, 24.05. 23:30 1015 + 0,8
Fr, 24.05. 23:00 1015 + 0,6
Fr, 24.05. 22:30 1014 + 0,6
Fr, 24.05. 22:00 1014 + 0,5
Fr, 24.05. 21:30 1014 0,0
Ortszeit Schneehöhe (cm)
Fr, 24.05. 20:00 -
Fr, 24.05. 14:00 -
Fr, 24.05. 8:00 -
Fr, 24.05. 2:00 -
Do, 23.05. 20:00 -
Do, 23.05. 14:00 -
Do, 23.05. 8:00 -
Do, 23.05. 2:00 -
Ortszeit Schneehöhe (cm)
Sa, 25.05. 0:30 -
Sa, 25.05. 0:10 -
Sa, 25.05. 0:00 -
Fr, 24.05. 23:50 -
Fr, 24.05. 23:40 -
Fr, 24.05. 23:30 -
Fr, 24.05. 23:00 -
Fr, 24.05. 22:30 -
Fr, 24.05. 22:00 -
Fr, 24.05. 21:30 -
Link zu dieser Seite / Seite empfehlen

Das Wetter in ...